Terminal Aerodrome Forecast
Issued by NWS

Home | Current Version | Previous Version | Graphics & Text | Print | Product List | Glossary On
Versions: 1 2 3 4 5 6 7 8 9 10 11 12 13 14 15 16
000
FTUS43 KIWX 240500
TAFSBN
TAF
KSBN 240536Z 2406/2506 22008KT P6SM SCT020 BKN250
     FM240800 24010KT P6SM OVC025
     FM241400 28010KT P6SM BKN035
     FM250000 VRB03KT P6SM BKN035=

USA.gov is the U.S. government's official web portal to all federal, state and local government web resources and services.